Tuesday, January 22, 2019, 4:27 PM EST
Back to Local

K1P1, Plymouth, Plymouth Municipal Airport

Location: Plymouth, NH, United States Lat: 43.779
Local Time: 4:27 PM EST (21:27 GMT) Lon: -71.754
Time Zone: US/Eastern Elev: 505 ft

Show me the last for .
Show Coded

Time T Td Feel RH Dir Speed Gust Alt SLP Vis Weather Sky Remarks
2019-01-22 16:15 15 -10 9 31 290° 3 - 30.51 - 10 CLR None
2019-01-22 15:55 15 -10 7 31 270° 5 - 30.51 - 10 CLR None
2019-01-22 15:35 16 -10 10 30 290° 3 - 30.52 - 10 CLR None
2019-01-22 15:15 16 -10 5 30 260° 8 - 30.52 - 10 CLR None
2019-01-22 14:55 16 -10 - 29 - Calm - 30.50 - 10 CLR None
2019-01-22 14:35 16 -11 9 28 270° 5 - 30.50 - 10 CLR None
2019-01-22 14:15 16 -12 7 27 260° 6 - 30.48 - 10 CLR None
2019-01-22 13:55 16 -12 5 27 280° 8 - 30.47 - 10 CLR None
2019-01-22 13:35 15 -12 -3 28 270° 12 22 30.46 - 10 CLR None
2019-01-22 13:15 14 -11 -4 29 270° 6 22 30.46 - 10 CLR None
2019-01-22 12:55 13 -11 -4 31 260° 10 18 30.47 - 10 CLR 6-hr Min Temp (1pm): 0.1°F
6-hr Max Temp (1pm): 13.3°F
2019-01-22 12:35 12 -11 -7 32 270° 14 24 30.47 - 10 CLR None
2019-01-22 12:15 11 -11 -9 34 280° 15 26 30.46 - 10 CLR None
2019-01-22 11:55 11 -12 -6 34 270° 10 17 30.45 - 10 CLR None
2019-01-22 11:35 10 -12 -8 35 260° 7 18 30.45 - 10 CLR None
2019-01-22 11:15 9 -11 -11 38 290° 12 21 30.44 - 10 CLR None
2019-01-22 10:55 8 -11 -14 41 280° 17 26 30.46 - 4 HZ CLR None
2019-01-22 10:35 7 -11 -15 42 290° 17 25 30.46 - 4 HZ CLR None
2019-01-22 10:15 6 -12 -17 41 280° 20 29 30.45 - 4 HZ CLR None
2019-01-22 09:55 6 -13 -17 41 280° 16 25 30.45 - 10 CLR None
2019-01-22 09:35 4 -13 -19 43 290° 17 26 30.44 - 7 CLR None
2019-01-22 09:15 3 -14 -19 44 300° 16 24 30.43 - 7 CLR None
2019-01-22 08:55 2 -14 -22 45 290° 20 29 30.43 - 7 CLR None
2019-01-22 08:35 2 -14 -22 45 290° 16 26 30.42 - 10 CLR None
2019-01-22 08:15 1 -14 -23 48 290° 16 28 30.41 - 3 HZ CLR None
2019-01-22 07:55 1 -13 -25 50 280° 20 30 30.40 - 5 HZ CLR None
2019-01-22 07:35 0 -13 -24 51 280° 18 25 30.39 - 3 HZ CLR None
2019-01-22 07:15 0 -13 -25 51 280° 18 28 30.38 - 7 CLR None
2019-01-22 06:55 0 -13 -26 52 280° 20 32 30.36 - 7 CLR 6-hr Min Temp (7am): -0.8°F
6-hr Max Temp (7am): 1.0°F
2019-01-22 06:35 1 -12 -26 53 280° 16 31 30.33 - 5 HZ CLR None
2019-01-22 06:15 1 -12 -24 52 280° 17 28 30.32 - 10 CLR None
2019-01-22 05:55 0 -12 -26 54 270° 16 32 30.31 - 10 CLR None
2019-01-22 05:35 0 -12 -25 55 280° 14 29 30.31 - 10 CLR None
2019-01-22 05:15 0 -12 -23 55 280° 10 23 30.30 - 10 CLR None
2019-01-22 04:55 0 -13 -24 55 260° 15 24 30.29 - 10 CLR None
2019-01-22 04:35 -1 -13 -24 55 260° 16 23 30.27 - 10 CLR None
2019-01-22 04:15 -1 -13 -23 54 270° 12 20 30.27 - 10 CLR None
2019-01-22 03:55 0 -13 -22 54 290° 9 18 30.25 - 10 CLR None
2019-01-22 03:35 0 -12 -25 55 280° 18 28 30.25 - 7 CLR None
2019-01-22 03:15 0 -12 -20 56 280° 12 16 30.24 - 10 CLR None
2019-01-22 02:55 0 -12 -24 56 290° 17 26 30.23 - 10 CLR None
2019-01-22 02:35 0 -11 -24 57 290° 12 24 30.23 - 10 CLR None
2019-01-22 02:15 0 -12 -14 57 300° 8 - 30.23 - 10 CLR None
2019-01-22 01:55 0 -11 -13 58 290° 7 - 30.22 - 10 CLR None
2019-01-22 01:35 0 -12 -13 58 310° 7 - 30.20 - 10 CLR None
2019-01-22 01:15 0 -11 -23 57 290° 12 22 30.19 - 10 CLR None
2019-01-22 00:55 0 -11 -24 57 300° 12 25 30.17 - 10 CLR 6-hr Min Temp (1am): -0.9°F
6-hr Max Temp (1am): 2.1°F
2019-01-22 00:35 1 -11 -23 56 290° 16 24 30.16 - 10 CLR None
2019-01-22 00:15 1 -11 -26 57 290° 15 32 30.15 - 5 HZ CLR None
2019-01-21 23:55 1 -10 -26 58 300° 21 33 30.14 - 3 HZ CLR None
2019-01-21 23:35 1 -11 -27 57 300° 28 38 30.10 - 3 HZ CLR None
2019-01-21 23:15 1 -11 -26 56 300° 24 36 30.09 - 3 HZ CLR None
2019-01-21 22:55 1 -11 -26 54 300° 21 36 30.08 - 5 HZ CLR 24-hr Min Temp (11pm): -4.0°F
24-hr Max Temp (11pm): 2.1°F
2019-01-21 22:35 1 -11 -25 55 300° 24 32 30.05 - 2 -SN CLR Variable visibility
2019-01-21 22:15 2 -11 -23 53 310° 18 28 30.04 - 4 HZ CLR None
2019-01-21 21:55 2 -11 -22 53 320° 12 28 30.03 - 4 HZ SCT040 None
2019-01-21 21:35 2 -10 -18 56 320° 10 17 30.02 - 10 BKN040 None
2019-01-21 21:15 2 -8 -23 61 320° 17 29 30.01 - 1 -SN SCT030 OVC040 Variable visibility
2019-01-21 20:55 1 -8 -22 64 290° 15 25 30.01 - 2 -SN SCT024 SCT029 BKN038 None
2019-01-21 20:35 1 -8 -21 66 320° 12 20 30.00 - 5 HZ SCT025 SCT030 BKN035 None
2019-01-21 20:15 1 -8 -23 67 300° 9 25 30.00 - 3 -SN BKN028 OVC034 None
2019-01-21 19:55 0 -7 -8 71 340° 3 - 29.99 - 5 -SN SCT017 BKN029 OVC036 None
2019-01-21 19:35 -1 -7 -25 72 320° 9 24 29.99 - 2 -SN BKN017 BKN023 OVC037 None
2019-01-21 19:15 -1 -8 -16 71 310° 9 - 29.98 - 3 -SN SCT016 BKN020 OVC039 None
2019-01-21 18:55 -1 -8 -15 70 320° 8 - 29.97 - 4 -SN SCT022 BKN030 OVC041 6-hr Min Temp (7pm): -1.7°F
6-hr Max Temp (7pm): -0.6°F
2019-01-21 18:35 -1 -9 -19 68 310° 13 - 29.96 - 4 -SN SCT015 BKN030 OVC036 None
2019-01-21 18:15 -1 -8 -20 72 310° 13 - 29.95 - 4 -SN BKN015 OVC028 None
2019-01-21 17:55 -1 -9 -22 67 340° 8 17 29.94 - 2 -SN BKN017 BKN023 OVC030 Variable visibility
2019-01-21 17:35 -1 -10 -22 65 310° 6 17 29.92 - 2 -SN OVC017 None
2019-01-21 17:15 -2 -10 -12 65 340° 5 - 29.91 - 3 -SN OVC017 None
2019-01-21 16:55 -2 -11 -25 63 340° 6 22 29.90 - 2 -SN BKN018 OVC022 None
2019-01-21 16:35 -1 -13 -22 57 330° 9 16 29.88 - 3 -SN SCT024 BKN029 OVC040 None

Support USWX by starting your Amazon purchase here.